PWSweather.com
Personal Weather Stations
Station Observations
CALONGE
CalongeES 17251

CalongeES 17251

Lat: 41.85972222, Lon: 3.077777778

Elevation: 16

Station Type: Oregon WMR928N

Latest ConditionsUpdated 7:30:01 PM GMT+01:01 Monday, Aug 20, 2018
Currently Today's Max Today's Min Today's Average
Temperature 86.4°F30.2°C 95.4°F35.2°C 73.6°F23.1°C 84.2°F29.0°C
Dew Point 43.0°F6.1°C 51.6°F10.9°C 40.7°F4.8°C 45.9°F7.7°C
Winds Calm Calm 14.4 mph -23.2 kmh - - 4.9 mph 7.9 kmh
Wind Gusts -- 22.9 mph36.9 kmh - -
Humidity 22% 43% 16% 28%
Pressure 29.98 in1015.2 mb 30.04 in1017.3 mb 29.95 in1014.2 mb -
Hour Temp Dew Point Humidity Winds Wind Gusts Pressure Precip Precip Rate Daily Precip Total
07:30 PM 86.4°F30.2°C 43.0°F6.1°C 22% Calm Calm -- 29.98 in1015.2 mb 0.00 in0.0 mm 0.00 in0.0 mm 0.00 in0.0 mm
07:15 PM 88.0°F31.1°C 41.9°F5.5°C 20% Calm Calm -- 29.98 in1015.2 mb 0.00 in0.0 mm 0.00 in0.0 mm 0.00 in0.0 mm
07:00 PM 88.7°F31.5°C 42.5°F5.8°C 20% Calm Calm 4.7 mph7.6 kmh 29.98 in1015.2 mb 0.00 in0.0 mm 0.00 in0.0 mm 0.00 in0.0 mm
06:45 PM 89.2°F31.8°C 41.6°F5.3°C 19% 5.9 mph WSW9.5 kmh WSW 8.2 mph13.2 kmh 29.95 in1014.2 mb 0.00 in0.0 mm 0.00 in0.0 mm 0.00 in0.0 mm
06:30 PM 89.4°F31.9°C 41.7°F5.4°C 19% 4.1 mph SW6.6 kmh SW 10.0 mph16.1 kmh 29.95 in1014.2 mb 0.00 in0.0 mm 0.00 in0.0 mm 0.00 in0.0 mm
06:15 PM 89.8°F32.1°C 42.0°F5.6°C 19% 9.4 mph SW15.1 kmh SW 10.8 mph17.4 kmh 29.95 in1014.2 mb 0.00 in0.0 mm 0.00 in0.0 mm 0.00 in0.0 mm
06:00 PM 90.0°F32.2°C 43.5°F6.4°C 20% 7.0 mph SSW11.3 kmh SSW 10.8 mph17.4 kmh 29.95 in1014.2 mb 0.00 in0.0 mm 0.00 in0.0 mm 0.00 in0.0 mm
05:45 PM 90.7°F32.6°C 45.4°F7.4°C 21% 6.4 mph S10.3 kmh S 13.8 mph22.2 kmh 29.95 in1014.2 mb 0.00 in0.0 mm 0.00 in0.0 mm 0.00 in0.0 mm
05:30 PM 90.9°F32.7°C 45.5°F7.5°C 21% 3.5 mph SW5.6 kmh SW 12.0 mph19.3 kmh 29.95 in1014.2 mb 0.00 in0.0 mm 0.00 in0.0 mm 0.00 in0.0 mm
05:15 PM 91.4°F33.0°C 44.7°F7.1°C 20% 8.2 mph SW13.2 kmh SW 13.2 mph21.2 kmh 29.95 in1014.2 mb 0.00 in0.0 mm 0.00 in0.0 mm 0.00 in0.0 mm
05:00 PM 92.8°F33.8°C 44.5°F6.9°C 19% 7.6 mph S12.2 kmh S 10.8 mph17.4 kmh 29.95 in1014.2 mb 0.00 in0.0 mm 0.00 in0.0 mm 0.00 in0.0 mm
04:45 PM 93.4°F34.1°C 42.0°F5.6°C 17% 3.5 mph ENE5.6 kmh ENE 10.8 mph17.4 kmh 29.95 in1014.2 mb 0.00 in0.0 mm 0.00 in0.0 mm 0.00 in0.0 mm
04:30 PM 93.4°F34.1°C 42.0°F5.6°C 17% 7.6 mph NE12.2 kmh NE 14.4 mph23.2 kmh 29.95 in1014.2 mb 0.00 in0.0 mm 0.00 in0.0 mm 0.00 in0.0 mm
04:15 PM 93.6°F34.2°C 42.2°F5.7°C 17% 5.3 mph NNE8.5 kmh NNE 13.8 mph22.2 kmh 29.95 in1014.2 mb 0.00 in0.0 mm 0.00 in0.0 mm 0.00 in0.0 mm
04:00 PM 93.9°F34.4°C 40.9°F4.9°C 16% 8.8 mph NE14.2 kmh NE 13.8 mph22.2 kmh 29.95 in1014.2 mb 0.00 in0.0 mm 0.00 in0.0 mm 0.00 in0.0 mm
03:45 PM 93.9°F34.4°C 42.5°F5.8°C 17% 8.2 mph NE13.2 kmh NE 17.3 mph27.8 kmh 29.98 in1015.2 mb 0.00 in0.0 mm 0.00 in0.0 mm 0.00 in0.0 mm
03:30 PM 94.3°F34.6°C 42.8°F6.0°C 17% 8.2 mph ENE13.2 kmh ENE 20.2 mph32.5 kmh 29.98 in1015.2 mb 0.00 in0.0 mm 0.00 in0.0 mm 0.00 in0.0 mm
03:15 PM 94.5°F34.7°C 42.9°F6.1°C 17% 7.6 mph NE12.2 kmh NE 20.2 mph32.5 kmh 29.98 in1015.2 mb 0.00 in0.0 mm 0.00 in0.0 mm 0.00 in0.0 mm
03:00 PM 94.6°F34.8°C 44.6°F7.0°C 18% Calm Calm 14.4 mph23.2 kmh 29.98 in1015.2 mb 0.00 in0.0 mm 0.00 in0.0 mm 0.00 in0.0 mm
02:45 PM 95.4°F35.2°C 45.1°F7.3°C 18% 5.9 mph SSW9.5 kmh SSW 10.5 mph16.9 kmh 29.98 in1015.2 mb 0.00 in0.0 mm 0.00 in0.0 mm 0.00 in0.0 mm
02:30 PM 94.8°F34.9°C 44.7°F7.1°C 18% 5.9 mph SW9.5 kmh SW 13.2 mph21.2 kmh 29.98 in1015.2 mb 0.00 in0.0 mm 0.00 in0.0 mm 0.00 in0.0 mm
02:15 PM 94.6°F34.8°C 44.6°F7.0°C 18% 7.0 mph SSE11.3 kmh SSE 14.4 mph23.2 kmh 29.98 in1015.2 mb 0.00 in0.0 mm 0.00 in0.0 mm 0.00 in0.0 mm
02:00 PM 93.4°F34.1°C 45.0°F7.2°C 19% 6.4 mph SE10.3 kmh SE 14.4 mph23.2 kmh 29.98 in1015.2 mb 0.00 in0.0 mm 0.00 in0.0 mm 0.00 in0.0 mm
01:45 PM 92.7°F33.7°C 48.3°F9.1°C 22% 6.4 mph SE10.3 kmh SE 13.2 mph21.2 kmh 30.01 in1016.3 mb 0.00 in0.0 mm 0.00 in0.0 mm 0.00 in0.0 mm
01:30 PM 92.1°F33.4°C 47.8°F8.8°C 22% Calm Calm 11.4 mph18.3 kmh 30.01 in1016.3 mb 0.00 in0.0 mm 0.00 in0.0 mm 0.00 in0.0 mm
01:15 PM 91.4°F33.0°C 49.5°F9.7°C 24% 11.4 mph SSE18.3 kmh SSE 14.4 mph23.2 kmh 30.01 in1016.3 mb 0.00 in0.0 mm 0.00 in0.0 mm 0.00 in0.0 mm
01:00 PM 90.9°F32.7°C 46.8°F8.2°C 22% 8.8 mph SSE14.2 kmh SSE 11.4 mph18.3 kmh 30.01 in1016.3 mb 0.00 in0.0 mm 0.00 in0.0 mm 0.00 in0.0 mm
12:45 PM 90.9°F32.7°C 46.8°F8.2°C 22% 10.8 mph SSE17.4 kmh SSE 16.1 mph25.9 kmh 30.01 in1016.3 mb 0.00 in0.0 mm 0.00 in0.0 mm 0.00 in0.0 mm
12:30 PM 91.6°F33.1°C 46.1°F7.8°C 21% 14.4 mph SE23.2 kmh SE 17.3 mph27.8 kmh 30.01 in1016.3 mb 0.00 in0.0 mm 0.00 in0.0 mm 0.00 in0.0 mm
12:15 PM 92.8°F33.8°C 43.1°F6.2°C 18% 9.4 mph SE15.1 kmh SE 22.9 mph36.9 kmh 30.01 in1016.3 mb 0.00 in0.0 mm 0.00 in0.0 mm 0.00 in0.0 mm
12:00 PM 92.8°F33.8°C 41.6°F5.3°C 17% 9.4 mph WNW15.1 kmh WNW 12.6 mph20.3 kmh 30.01 in1016.3 mb 0.00 in0.0 mm 0.00 in0.0 mm 0.00 in0.0 mm
11:45 AM 92.5°F33.6°C 41.3°F5.2°C 17% 5.3 mph WNW8.5 kmh WNW 13.2 mph21.2 kmh 30.01 in1016.3 mb 0.00 in0.0 mm 0.00 in0.0 mm 0.00 in0.0 mm
11:30 AM 91.8°F33.2°C 40.7°F4.8°C 17% 4.7 mph WNW7.6 kmh WNW 17.3 mph27.8 kmh 30.01 in1016.3 mb 0.00 in0.0 mm 0.00 in0.0 mm 0.00 in0.0 mm
11:15 AM 90.7°F32.6°C 41.3°F5.2°C 18% Calm Calm 10.5 mph16.9 kmh 30.01 in1016.3 mb 0.00 in0.0 mm 0.00 in0.0 mm 0.00 in0.0 mm
11:00 AM 90.3°F32.4°C 41.1°F5.1°C 18% 5.3 mph NW8.5 kmh NW 17.3 mph27.8 kmh 30.01 in1016.3 mb 0.00 in0.0 mm 0.00 in0.0 mm 0.00 in0.0 mm
10:45 AM 90.7°F32.6°C 41.3°F5.2°C 18% 5.3 mph NNW8.5 kmh NNW 10.5 mph16.9 kmh 30.01 in1016.3 mb 0.00 in0.0 mm 0.00 in0.0 mm 0.00 in0.0 mm
10:30 AM 90.0°F32.2°C 40.8°F4.9°C 18% 4.1 mph NNW6.6 kmh NNW 10.0 mph16.1 kmh 30.01 in1016.3 mb 0.00 in0.0 mm 0.00 in0.0 mm 0.00 in0.0 mm
10:15 AM 89.1°F31.7°C 41.4°F5.2°C 19% 3.5 mph N5.6 kmh N 10.0 mph16.1 kmh 30.01 in1016.3 mb 0.00 in0.0 mm 0.00 in0.0 mm 0.00 in0.0 mm
10:00 AM 87.6°F30.9°C 42.9°F6.1°C 21% Calm Calm 10.0 mph16.1 kmh 30.01 in1016.3 mb 0.00 in0.0 mm 0.00 in0.0 mm 0.00 in0.0 mm
09:45 AM 86.5°F30.3°C 43.2°F6.2°C 22% 4.7 mph N7.6 kmh N 8.2 mph13.2 kmh 30.01 in1016.3 mb 0.00 in0.0 mm 0.00 in0.0 mm 0.00 in0.0 mm
09:30 AM 85.5°F29.7°C 43.4°F6.3°C 23% Calm Calm 7.6 mph12.2 kmh 30.04 in1017.3 mb 0.00 in0.0 mm 0.00 in0.0 mm 0.00 in0.0 mm
09:15 AM 84.2°F29.0°C 44.6°F7.0°C 25% 3.5 mph NNW5.6 kmh NNW 9.4 mph15.1 kmh 30.01 in1016.3 mb 0.00 in0.0 mm 0.00 in0.0 mm 0.00 in0.0 mm
09:00 AM 82.2°F27.9°C 44.9°F7.2°C 27% Calm Calm 12.6 mph20.3 kmh 30.01 in1016.3 mb 0.00 in0.0 mm 0.00 in0.0 mm 0.00 in0.0 mm
08:45 AM 81.3°F27.4°C 45.1°F7.3°C 28% 8.2 mph NW13.2 kmh NW 13.2 mph21.2 kmh 30.04 in1017.3 mb 0.00 in0.0 mm 0.00 in0.0 mm 0.00 in0.0 mm
08:30 AM 80.1°F26.7°C 45.8°F7.7°C 30% 7.0 mph NW11.3 kmh NW 14.9 mph24.0 kmh 30.01 in1016.3 mb 0.00 in0.0 mm 0.00 in0.0 mm 0.00 in0.0 mm
08:15 AM 79.9°F26.6°C 45.7°F7.6°C 30% 9.4 mph NW15.1 kmh NW 13.2 mph21.2 kmh 30.01 in1016.3 mb 0.00 in0.0 mm 0.00 in0.0 mm 0.00 in0.0 mm
08:00 AM 79.0°F26.1°C 45.8°F7.7°C 31% 8.2 mph NW13.2 kmh NW 13.2 mph21.2 kmh 30.01 in1016.3 mb 0.00 in0.0 mm 0.00 in0.0 mm 0.00 in0.0 mm
07:45 AM 77.9°F25.5°C 46.5°F8.1°C 33% 10.8 mph NW17.4 kmh NW 13.8 mph22.2 kmh 30.01 in1016.3 mb 0.00 in0.0 mm 0.00 in0.0 mm 0.00 in0.0 mm
07:30 AM 76.8°F24.9°C 46.3°F7.9°C 34% 5.3 mph NW8.5 kmh NW 11.4 mph18.3 kmh 30.01 in1016.3 mb 0.00 in0.0 mm 0.00 in0.0 mm 0.00 in0.0 mm
07:15 AM 76.6°F24.8°C 46.2°F7.9°C 34% 10.0 mph NW16.1 kmh NW 11.4 mph18.3 kmh 30.01 in1016.3 mb 0.00 in0.0 mm 0.00 in0.0 mm 0.00 in0.0 mm
07:00 AM 75.9°F24.4°C 47.0°F8.3°C 36% 5.3 mph WNW8.5 kmh WNW 7.6 mph12.2 kmh 30.01 in1016.3 mb 0.00 in0.0 mm 0.00 in0.0 mm 0.00 in0.0 mm
06:45 AM 75.4°F24.1°C 46.6°F8.1°C 36% 5.3 mph WNW8.5 kmh WNW 11.4 mph18.3 kmh 30.01 in1016.3 mb 0.00 in0.0 mm 0.00 in0.0 mm 0.00 in0.0 mm
06:30 AM 74.1°F23.4°C 46.9°F8.3°C 38% 8.8 mph WNW14.2 kmh WNW 13.8 mph22.2 kmh 30.01 in1016.3 mb 0.00 in0.0 mm 0.00 in0.0 mm 0.00 in0.0 mm
06:15 AM 73.6°F23.1°C 47.8°F8.8°C 40% 5.3 mph W8.5 kmh W 7.0 mph11.3 kmh 30.01 in1016.3 mb 0.00 in0.0 mm 0.00 in0.0 mm 0.00 in0.0 mm
06:00 AM 73.6°F23.1°C 48.4°F9.1°C 41% Calm Calm 8.2 mph13.2 kmh 30.01 in1016.3 mb 0.00 in0.0 mm 0.00 in0.0 mm 0.00 in0.0 mm
05:45 AM 74.1°F23.4°C 48.9°F9.4°C 41% Calm Calm -- 30.01 in1016.3 mb 0.00 in0.0 mm 0.00 in0.0 mm 0.00 in0.0 mm
05:30 AM 74.1°F23.4°C 48.9°F9.4°C 41% 2.9 mph NW4.7 kmh NW 5.3 mph8.5 kmh 30.01 in1016.3 mb 0.00 in0.0 mm 0.00 in0.0 mm 0.00 in0.0 mm
05:15 AM 74.1°F23.4°C 48.9°F9.4°C 41% 2.9 mph NW4.7 kmh NW 5.3 mph8.5 kmh 30.01 in1016.3 mb 0.00 in0.0 mm 0.00 in0.0 mm 0.00 in0.0 mm
05:00 AM 74.1°F23.4°C 48.9°F9.4°C 41% 2.9 mph WNW4.7 kmh WNW 7.0 mph11.3 kmh 30.01 in1016.3 mb 0.00 in0.0 mm 0.00 in0.0 mm 0.00 in0.0 mm
04:45 AM 74.3°F23.5°C 49.1°F9.5°C 41% 4.7 mph WNW7.6 kmh WNW 7.6 mph12.2 kmh 30.01 in1016.3 mb 0.00 in0.0 mm 0.00 in0.0 mm 0.00 in0.0 mm
04:30 AM 74.3°F23.5°C 49.1°F9.5°C 41% 4.1 mph WNW6.6 kmh WNW 7.6 mph12.2 kmh 30.01 in1016.3 mb 0.00 in0.0 mm 0.00 in0.0 mm 0.00 in0.0 mm
04:15 AM 75.0°F23.9°C 49.1°F9.5°C 40% 4.1 mph WNW6.6 kmh WNW 7.6 mph12.2 kmh 30.01 in1016.3 mb 0.00 in0.0 mm 0.00 in0.0 mm 0.00 in0.0 mm
04:00 AM 75.7°F24.3°C 48.3°F9.1°C 38% Calm Calm 7.6 mph12.2 kmh 30.01 in1016.3 mb 0.00 in0.0 mm 0.00 in0.0 mm 0.00 in0.0 mm
03:45 AM 76.1°F24.5°C 48.6°F9.2°C 38% 4.7 mph NW7.6 kmh NW 8.8 mph14.2 kmh 30.01 in1016.3 mb 0.00 in0.0 mm 0.00 in0.0 mm 0.00 in0.0 mm
03:30 AM 76.3°F24.6°C 48.8°F9.3°C 38% Calm Calm 7.6 mph12.2 kmh 30.01 in1016.3 mb 0.00 in0.0 mm 0.00 in0.0 mm 0.00 in0.0 mm
03:15 AM 76.5°F24.7°C 49.0°F9.4°C 38% 5.3 mph NW8.5 kmh NW 8.2 mph13.2 kmh 30.01 in1016.3 mb 0.00 in0.0 mm 0.00 in0.0 mm 0.00 in0.0 mm
03:00 AM 76.5°F24.7°C 49.7°F9.8°C 39% 3.5 mph NW5.6 kmh NW 10.5 mph16.9 kmh 30.01 in1016.3 mb 0.00 in0.0 mm 0.00 in0.0 mm 0.00 in0.0 mm
02:45 AM 76.1°F24.5°C 50.0°F10.0°C 40% 2.9 mph NW4.7 kmh NW 8.2 mph13.2 kmh 30.01 in1016.3 mb 0.00 in0.0 mm 0.00 in0.0 mm 0.00 in0.0 mm
02:30 AM 74.7°F23.7°C 50.7°F10.4°C 43% 3.5 mph NW5.6 kmh NW 7.6 mph12.2 kmh 30.01 in1016.3 mb 0.00 in0.0 mm 0.00 in0.0 mm 0.00 in0.0 mm
02:15 AM 74.7°F23.7°C 50.7°F10.4°C 43% Calm Calm 5.3 mph8.5 kmh 30.01 in1016.3 mb 0.00 in0.0 mm 0.00 in0.0 mm 0.00 in0.0 mm
02:00 AM 75.7°F24.3°C 51.6°F10.9°C 43% 4.1 mph NW6.6 kmh NW 5.3 mph8.5 kmh 30.04 in1017.3 mb 0.00 in0.0 mm 0.00 in0.0 mm 0.00 in0.0 mm
01:45 AM 75.7°F24.3°C 51.6°F10.9°C 43% 5.9 mph NW9.5 kmh NW 8.2 mph13.2 kmh 30.04 in1017.3 mb 0.00 in0.0 mm 0.00 in0.0 mm 0.00 in0.0 mm
01:30 AM 76.1°F24.5°C 51.3°F10.7°C 42% 5.3 mph NW8.5 kmh NW 8.2 mph13.2 kmh 30.04 in1017.3 mb 0.00 in0.0 mm 0.00 in0.0 mm 0.00 in0.0 mm
01:15 AM 75.6°F24.2°C 50.9°F10.5°C 42% 5.3 mph NNW8.5 kmh NNW 10.8 mph17.4 kmh 30.04 in1017.3 mb 0.00 in0.0 mm 0.00 in0.0 mm 0.00 in0.0 mm
01:00 AM 75.0°F23.9°C 51.0°F10.6°C 43% 4.7 mph NW7.6 kmh NW 7.0 mph11.3 kmh 30.04 in1017.3 mb 0.00 in0.0 mm 0.00 in0.0 mm 0.00 in0.0 mm
12:45 AM 75.4°F24.1°C 50.7°F10.4°C 42% Calm Calm -- 30.04 in1017.3 mb 0.00 in0.0 mm 0.00 in0.0 mm 0.00 in0.0 mm
12:30 AM 75.9°F24.4°C 50.5°F10.3°C 41% Calm Calm -- 30.04 in1017.3 mb 0.00 in0.0 mm 0.00 in0.0 mm 0.00 in0.0 mm
12:15 AM 77.5°F25.3°C 49.2°F9.6°C 37% Calm Calm -- 30.04 in1017.3 mb 0.00 in0.0 mm 0.00 in0.0 mm 0.00 in0.0 mm
12:00 AM 77.5°F25.3°C 49.2°F9.6°C 37% Calm Calm -- 30.04 in1017.3 mb 0.00 in0.0 mm 0.00 in0.0 mm 0.00 in0.0 mm